Time;durP1;ratioP1;P1;durP2;ratioP2;P2;SDS_P1;SDS_P2;PMS_P1;PMS_P2;Temp;Humidity;BMP_temperature;BMP_pressure;BME280_temperature;BME280_humidity;BME280_pressure;Samples;Min_cycle;Max_cycle;Signal;HPM_P1;HPM_P2
2021/05/11 00:00:41;;;;;;;16.00;3.38;;;36.40;16.50;;;;;;5114073;28;20080;-55
2021/05/11 00:03:07;;;;;;;18.67;2.85;;;36.50;15.80;;;;;;5113517;28;20110;-58
2021/05/11 00:08:56;;;;;;;13.75;3.03;;;36.30;15.90;;;;;;5114302;28;20532;-59
2021/05/11 00:11:23;;;;;;;16.23;3.47;;;36.10;16.00;;;;;;5113571;28;20073;-54
2021/05/11 00:13:49;;;;;;;11.82;2.78;;;36.30;15.70;;;;;;5113994;28;20075;-55
2021/05/11 00:16:16;;;;;;;11.90;2.75;;;36.20;15.50;;;;;;5113600;28;20076;-57
2021/05/11 00:18:42;;;;;;;15.57;3.05;;;36.20;15.90;;;;;;5113960;28;20075;-55
2021/05/11 00:24:31;;;;;;;10.30;2.92;;;36.10;15.30;;;;;;5114034;28;20090;-58
2021/05/11 00:26:57;;;;;;;12.48;3.22;;;36.20;16.00;;;;;;5113338;28;20072;-58
2021/05/11 00:29:24;;;;;;;7.90;3.03;;;36.10;16.30;;;;;;5113148;28;20068;-54
2021/05/11 00:31:50;;;;;;;11.27;3.80;;;36.20;15.70;;;;;;5113543;28;20168;-52
2021/05/11 00:34:17;;;;;;;22.27;6.40;;;36.20;15.50;;;;;;5113529;28;20472;-55
2021/05/11 00:36:43;;;;;;;18.58;6.70;;;36.10;15.90;;;;;;5113336;28;20064;-58
2021/05/11 00:42:32;;;;;;;12.20;3.35;;;35.80;15.70;;;;;;5113765;28;20176;-54
2021/05/11 00:44:59;;;;;;;16.13;2.67;;;35.70;15.70;;;;;;5113237;28;20513;-54
2021/05/11 00:47:25;;;;;;;13.07;2.58;;;35.60;16.00;;;;;;5113158;28;20084;-57
2021/05/11 00:49:52;;;;;;;12.02;2.50;;;35.50;16.30;;;;;;5113276;28;20079;-57
2021/05/11 00:52:19;;;;;;;13.10;2.75;;;35.60;16.40;;;;;;5113136;28;20136;-53
2021/05/11 00:54:48;;;;;;;12.35;2.78;;;35.60;16.50;;;;;;5113253;28;20107;-55
2021/05/11 00:57:15;;;;;;;13.13;2.83;;;35.40;16.80;;;;;;5113302;28;20064;-55
2021/05/11 00:59:42;;;;;;;12.32;2.58;;;35.40;16.50;;;;;;5113033;28;20084;-55
2021/05/11 01:02:09;;;;;;;15.15;3.20;;;35.50;16.30;;;;;;5112993;28;20163;-55
2021/05/11 01:04:37;;;;;;;11.13;2.88;;;35.50;16.70;;;;;;5112994;28;20076;-53
2021/05/11 01:07:05;;;;;;;6.97;2.28;;;35.60;16.80;;;;;;5113176;28;20522;-56
2021/05/11 01:09:32;;;;;;;14.48;2.97;;;35.50;15.90;;;;;;5113237;28;20125;-56
2021/05/11 01:11:58;;;;;;;8.80;2.95;;;35.40;16.30;;;;;;5113048;28;20081;-54
2021/05/11 01:14:26;;;;;;;20.40;3.97;;;35.40;16.30;;;;;;5112731;28;20079;-55
2021/05/11 01:16:59;;;;;;;12.30;3.38;;;35.30;16.80;;;;;;5113039;28;20156;-55
2021/05/11 01:23:24;;;;;;;11.88;2.97;;;35.00;16.30;;;;;;5113391;28;20110;-53
2021/05/11 01:25:38;;;;;;;12.02;2.90;;;35.00;16.70;;;;;;5110819;28;20119;-53
2021/05/11 01:28:36;;;;;;;12.15;3.17;;;34.90;16.90;;;;;;5112865;28;20173;-55
2021/05/11 01:50:02;;;;;;;13.38;3.25;;;34.50;17.30;;;;;;5097925;28;20072;-52
2021/05/11 01:52:47;;;;;;;17.58;3.72;;;34.40;18.00;;;;;;5116197;28;20123;-56
2021/05/11 02:23:22;;;;;;;15.25;3.55;;;32.70;19.10;;;;;;5115770;28;20161;-54
2021/05/11 02:25:48;;;;;;;20.88;3.53;;;32.60;19.30;;;;;;5115640;28;20072;-53
2021/05/11 02:28:15;;;;;;;19.45;3.55;;;32.50;19.60;;;;;;5115805;28;20076;-53
2021/05/11 02:30:42;;;;;;;16.23;3.00;;;32.40;19.90;;;;;;5115525;28;20072;-55
2021/05/11 02:33:08;;;;;;;17.33;4.18;;;32.40;20.00;;;;;;5115704;28;20072;-54
2021/05/11 02:38:57;;;;;;;19.42;4.03;;;32.20;20.00;;;;;;5116251;28;20413;-50
2021/05/11 02:41:24;;;;;;;16.98;4.55;;;32.10;20.70;;;;;;5115713;28;20080;-50
2021/05/11 02:43:50;;;;;;;24.98;4.53;;;32.00;21.00;;;;;;5115971;28;20100;-53
2021/05/11 02:46:17;;;;;;;26.30;4.63;;;31.90;21.10;;;;;;5115674;28;20076;-54
2021/05/11 02:48:43;;;;;;;24.83;5.03;;;31.80;21.50;;;;;;5116126;28;20122;-55
2021/05/11 02:51:09;;;;;;;15.63;4.30;;;31.70;21.10;;;;;;5117018;28;20193;-58
2021/05/11 02:53:36;;;;;;;32.75;5.03;;;31.70;21.30;;;;;;5115295;28;20167;-56
2021/05/11 02:56:02;;;;;;;23.25;6.30;;;31.60;21.30;;;;;;5115387;28;20088;-56
2021/05/11 02:58:30;;;;;;;28.25;7.43;;;31.50;21.60;;;;;;5115639;28;20072;-56
2021/05/11 03:00:56;;;;;;;25.08;8.18;;;31.50;21.70;;;;;;5115024;28;20608;-56
2021/05/11 03:03:23;;;;;;;33.20;8.27;;;31.40;22.50;;;;;;5114927;28;20157;-57
2021/05/11 03:05:50;;;;;;;31.45;5.45;;;31.30;22.70;;;;;;5115072;28;20079;-57
2021/05/11 03:08:16;;;;;;;25.63;5.50;;;31.20;22.20;;;;;;5115111;28;20080;-53
2021/05/11 03:10:43;;;;;;;27.63;5.82;;;31.10;22.30;;;;;;5113715;28;20513;-56
2021/05/11 03:13:10;;;;;;;25.80;7.97;;;31.00;22.50;;;;;;5115000;28;20096;-57
2021/05/11 03:15:36;;;;;;;32.40;7.05;;;31.00;22.70;;;;;;5114777;28;20429;-57
2021/05/11 03:18:02;;;;;;;24.15;6.90;;;30.90;23.10;;;;;;5114686;28;20125;-53
2021/05/11 03:23:51;;;;;;;32.90;8.35;;;30.70;22.50;;;;;;5114127;28;20103;-58
2021/05/11 03:26:17;;;;;;;21.95;6.85;;;30.60;23.00;;;;;;5096080;28;20068;-54
2021/05/11 03:28:44;;;;;;;28.90;6.75;;;30.50;23.30;;;;;;5114178;28;20076;-60
2021/05/11 03:31:10;;;;;;;28.05;5.78;;;30.50;23.20;;;;;;5096447;28;20064;-55
2021/05/11 03:33:37;;;;;;;31.52;6.07;;;30.40;23.40;;;;;;5114308;28;20141;-56
2021/05/11 03:36:03;;;;;;;24.38;5.10;;;30.30;23.50;;;;;;5113954;28;20080;-54
2021/05/11 03:38:30;;;;;;;22.17;4.40;;;30.30;23.50;;;;;;5113830;28;20068;-55
2021/05/11 03:40:57;;;;;;;14.25;3.80;;;30.20;23.00;;;;;;5114248;28;20072;-56
2021/05/11 03:43:31;;;;;;;22.05;4.97;;;30.20;23.10;;;;;;5114070;28;20103;-55
2021/05/11 03:46:03;;;;;;;17.98;4.65;;;30.20;23.10;;;;;;5114433;28;20409;-54
2021/05/11 03:48:30;;;;;;;16.33;4.40;;;30.10;23.40;;;;;;5114274;28;20068;-52
2021/05/11 03:50:56;;;;;;;22.67;5.55;;;30.10;23.10;;;;;;5113914;28;20120;-52
2021/05/11 03:53:23;;;;;;;16.65;4.72;;;30.10;23.10;;;;;;5114317;28;20166;-56
2021/05/11 03:55:51;;;;;;;20.42;4.95;;;30.00;23.00;;;;;;5114204;28;20072;-53
2021/05/11 03:58:17;;;;;;;21.42;5.45;;;29.90;23.10;;;;;;5114116;28;20513;-58
2021/05/11 04:00:44;;;;;;;21.92;5.13;;;29.90;23.00;;;;;;5114161;28;20128;-55
2021/05/11 04:03:10;;;;;;;18.60;4.70;;;29.80;23.40;;;;;;5113847;28;20096;-58
2021/05/11 04:05:37;;;;;;;21.17;4.10;;;29.80;23.60;;;;;;5113996;28;20099;-56
2021/05/11 04:08:03;;;;;;;21.60;4.57;;;29.80;23.70;;;;;;5113947;28;20449;-53
2021/05/11 04:18:10;;;;;;;24.60;5.25;;;29.50;24.90;;;;;;5114079;28;20083;-55
2021/05/11 04:20:37;;;;;;;19.10;5.70;;;29.30;24.60;;;;;;5113715;28;20128;-55
2021/05/11 04:23:03;;;;;;;45.20;6.70;;;29.20;24.70;;;;;;5113486;28;20191;-55
2021/05/11 04:25:30;;;;;;;38.08;6.93;;;29.10;24.70;;;;;;5113668;28;20075;-52
2021/05/11 04:27:56;;;;;;;26.20;5.80;;;29.00;25.10;;;;;;5113577;28;20117;-53
2021/05/11 04:33:46;;;;;;;27.13;5.53;;;28.90;25.50;;;;;;5113830;28;20479;-56
2021/05/11 04:36:13;;;;;;;23.48;4.90;;;28.90;25.60;;;;;;5113265;28;20076;-54
2021/05/11 04:38:40;;;;;;;35.47;5.07;;;28.80;25.90;;;;;;5113583;28;20099;-56
2021/05/11 04:44:32;;;;;;;18.05;4.47;;;28.70;26.00;;;;;;5113204;28;20102;-52
2021/05/11 04:50:03;;;;;;;21.73;4.30;;;28.60;25.80;;;;;;5050675;28;20084;-53
2021/05/11 04:52:30;;;;;;;26.10;5.57;;;28.50;26.70;;;;;;5050592;28;20183;-54
2021/05/11 04:54:56;;;;;;;31.05;6.07;;;28.50;26.80;;;;;;5080367;28;20076;-53
2021/05/11 04:57:23;;;;;;;29.65;5.45;;;28.50;28.00;;;;;;5113478;28;20076;-53
2021/05/11 05:03:14;;;;;;;34.83;6.10;;;28.50;28.80;;;;;;5113609;28;20107;-54
2021/05/11 05:05:42;;;;;;;35.40;5.35;;;28.50;29.10;;;;;;5113423;28;20071;-53
2021/05/11 05:08:10;;;;;;;30.30;7.25;;;28.40;29.30;;;;;;5113119;28;20154;-56
2021/05/11 05:10:36;;;;;;;32.67;7.30;;;28.30;30.10;;;;;;5113351;28;20072;-55
2021/05/11 05:13:03;;;;;;;34.85;7.78;;;28.40;30.90;;;;;;5113361;28;20076;-54
2021/05/11 05:15:31;;;;;;;35.63;7.50;;;28.30;31.20;;;;;;5113092;28;20456;-50
2021/05/11 05:17:58;;;;;;;24.75;4.88;;;28.20;31.40;;;;;;5113275;28;20421;-53
2021/05/11 05:20:25;;;;;;;30.98;4.82;;;28.10;33.40;;;;;;5113106;28;20068;-52
2021/05/11 05:22:51;;;;;;;26.45;4.05;;;28.10;35.10;;;;;;5113191;28;20100;-53
2021/05/11 05:25:25;;;;;;;22.38;4.30;;;28.00;35.80;;;;;;5117033;28;20068;-52
2021/05/11 05:30:22;;;;;;;32.90;4.43;;;27.90;36.20;;;;;;5117231;28;20171;-50
2021/05/11 05:32:48;;;;;;;27.67;9.50;;;27.90;36.50;;;;;;5117012;28;20080;-50
2021/05/11 05:35:15;;;;;;;26.17;6.43;;;27.80;36.70;;;;;;5117216;28;20544;-54
2021/05/11 05:37:42;;;;;;;24.40;6.05;;;27.80;36.70;;;;;;5118098;28;20488;-53
2021/05/11 05:40:10;;;;;;;31.10;5.80;;;27.80;37.00;;;;;;5117651;28;20487;-53
2021/05/11 05:42:37;;;;;;;25.65;5.60;;;27.60;37.00;;;;;;5117032;28;20112;-51
2021/05/11 05:45:04;;;;;;;29.52;5.15;;;27.70;37.40;;;;;;5117165;28;20076;-50
2021/05/11 05:47:30;;;;;;;25.05;6.80;;;27.70;37.20;;;;;;5116751;28;20565;-52
2021/05/11 05:50:06;;;;;;;32.45;7.03;;;27.60;37.10;;;;;;5116695;28;20529;-50
2021/05/11 05:52:39;;;;;;;24.20;6.72;;;27.60;37.10;;;;;;5116642;28;20200;-52
2021/05/11 05:55:06;;;;;;;27.83;7.50;;;27.50;37.20;;;;;;5116728;28;20087;-51
2021/05/11 05:57:32;;;;;;;43.90;7.75;;;27.40;37.20;;;;;;5116562;28;20124;-54
2021/05/11 06:03:33;;;;;;;31.73;5.18;;;27.30;36.90;;;;;;5116730;28;20591;-50
2021/05/11 06:05:59;;;;;;;28.35;5.35;;;27.20;37.00;;;;;;5116878;28;20410;-50
2021/05/11 06:08:27;;;;;;;23.95;4.43;;;27.10;37.10;;;;;;5116347;28;20149;-51
2021/05/11 06:11:00;;;;;;;29.48;5.22;;;27.10;37.10;;;;;;5116471;28;20069;-52
2021/05/11 06:13:33;;;;;;;27.23;5.03;;;27.10;37.20;;;;;;5116355;28;20100;-53
2021/05/11 06:18:44;;;;;;;23.08;4.82;;;27.00;39.60;;;;;;5116727;28;20131;-53
2021/05/11 06:24:33;;;;;;;30.73;5.40;;;26.70;41.80;;;;;;5116081;28;20110;-53
2021/05/11 06:27:00;;;;;;;26.85;5.97;;;26.50;42.80;;;;;;5115931;28;20170;-53
2021/05/11 06:29:29;;;;;;;37.42;6.15;;;26.40;43.50;;;;;;5097709;28;20072;-52
2021/05/11 06:31:56;;;;;;;33.47;5.80;;;26.40;43.90;;;;;;5115813;28;20590;-51
2021/05/11 06:34:22;;;;;;;26.50;5.55;;;26.50;44.60;;;;;;5115424;28;20068;-51
2021/05/11 06:36:49;;;;;;;27.40;4.82;;;26.40;45.70;;;;;;5115783;28;20124;-55
2021/05/11 06:39:16;;;;;;;22.85;5.43;;;26.30;47.40;;;;;;5115391;28;20072;-49
2021/05/11 06:41:46;;;;;;;30.42;5.53;;;26.20;48.90;;;;;;5115631;28;20117;-53
2021/05/11 06:54:02;;;;;;;18.83;4.50;;;25.80;55.30;;;;;;5110024;28;20303;-51
2021/05/11 06:59:50;;;;;;;29.17;4.88;;;25.70;56.70;;;;;;5115684;28;20115;-54
2021/05/11 07:02:16;;;;;;;26.40;4.95;;;25.60;57.40;;;;;;5115186;28;20076;-53
2021/05/11 07:04:44;;;;;;;27.42;4.70;;;25.50;60.90;;;;;;5115251;28;20453;-51
2021/05/11 07:07:13;;;;;;;24.75;5.00;;;25.40;58.60;;;;;;5115270;28;20076;-52
2021/05/11 07:18:24;;;;;;;25.35;4.13;;;25.20;60.00;;;;;;5115449;28;20075;-52
2021/05/11 07:20:57;;;;;;;25.08;5.50;;;25.20;60.00;;;;;;5115327;28;20087;-50
2021/05/11 07:29:52;;;;;;;23.13;4.40;;;25.10;58.70;;;;;;5052065;28;20065;-51
2021/05/11 07:32:19;;;;;;;16.20;4.50;;;25.00;58.90;;;;;;5104295;28;20537;-52
2021/05/11 07:34:48;;;;;;;19.15;4.43;;;25.00;58.90;;;;;;5114708;28;20171;-52
2021/05/11 07:37:15;;;;;;;23.17;4.68;;;25.00;59.20;;;;;;5114590;28;20163;-53
2021/05/11 07:39:45;;;;;;;27.33;5.03;;;25.00;59.30;;;;;;5114521;28;20102;-51
2021/05/11 07:42:12;;;;;;;32.10;5.32;;;24.80;59.10;;;;;;5114663;28;20132;-51
2021/05/11 07:44:45;;;;;;;26.13;5.70;;;;;;;;;;5114736;28;20087;-55
2021/05/11 07:47:20;;;;;;;22.50;4.95;;;25.00;57.70;;;;;;5113963;28;20086;-52
2021/05/11 07:56:29;;;;;;;16.33;4.35;;;24.90;56.50;;;;;;5114099;28;20075;-55
2021/05/11 08:14:38;;;;;;;20.02;4.13;;;24.80;50.60;;;;;;5114209;28;20079;-53
2021/05/11 08:17:03;;;;;;;21.23;4.25;;;24.80;49.60;;;;;;5113681;28;20506;-55
2021/05/11 08:19:55;;;;;;;23.73;4.38;;;24.70;48.70;;;;;;5113808;28;20072;-52
2021/05/11 08:28:02;;;;;;;15.95;4.32;;;24.80;47.50;;;;;;5113799;28;20075;-55
2021/05/11 08:30:29;;;;;;;24.38;4.70;;;24.70;46.80;;;;;;5113745;28;20563;-51
2021/05/11 08:32:55;;;;;;;21.05;4.38;;;24.70;46.60;;;;;;5113760;28;20168;-51
2021/05/11 08:35:22;;;;;;;21.60;3.90;;;24.70;46.40;;;;;;5113588;28;20648;-53
2021/05/11 08:37:49;;;;;;;23.60;3.78;;;24.60;45.60;;;;;;5113599;28;20072;-54
2021/05/11 08:43:41;;;;;;;21.67;3.83;;;24.50;44.80;;;;;;5113679;28;20107;-55
2021/05/11 08:49:29;;;;;;;23.25;3.67;;;24.50;45.40;;;;;;5113960;28;20075;-55
2021/05/11 08:52:09;;;;;;;15.60;3.60;;;24.40;45.30;;;;;;5113354;28;20471;-53
2021/05/11 08:55:03;;;;;;;24.80;3.72;;;24.30;45.60;;;;;;5113436;28;20104;-54
2021/05/11 09:25:47;;;;;;;19.25;3.85;;;23.80;48.10;;;;;;5117533;28;20113;-55
2021/05/11 09:28:58;;;;;;;18.67;4.00;;;23.80;48.10;;;;;;5116999;28;20090;-52
2021/05/11 09:34:20;;;;;;;;;;;23.70;46.50;;;;;;5117939;28;20196;-56
2021/05/11 10:14:20;;;;;;;23.40;4.32;;;23.20;55.90;;;;;;5092243;28;20078;-51
2021/05/11 10:48:34;;;;;;;28.13;4.57;;;23.00;58.90;;;;;;5115928;28;20089;-57
2021/05/11 10:51:06;;;;;;;24.20;4.60;;;23.00;59.00;;;;;;5115692;28;20080;-53
2021/05/11 10:54:00;;;;;;;27.95;4.53;;;22.90;59.30;;;;;;5115333;28;20151;-53
2021/05/11 10:56:38;;;;;;;21.88;4.70;;;22.90;59.00;;;;;;5115548;28;20210;-50
2021/05/11 11:02:24;;;;;;;23.52;4.55;;;22.80;59.50;;;;;;5115558;28;20429;-53
2021/05/11 11:04:47;;;;;;;20.77;4.30;;;22.80;59.60;;;;;;5114289;28;20560;-53
2021/05/11 11:07:14;;;;;;;23.98;4.78;;;22.80;59.70;;;;;;5115559;28;20076;-55
2021/05/11 11:09:53;;;;;;;22.77;4.50;;;22.80;59.70;;;;;;5115431;28;20506;-56
2021/05/11 11:12:22;;;;;;;23.60;3.92;;;22.80;59.50;;;;;;5115304;28;20088;-54
2021/05/11 11:14:48;;;;;;;21.10;5.10;;;22.80;59.60;;;;;;5115027;28;20440;-52
2021/05/11 11:17:16;;;;;;;31.50;4.88;;;22.70;59.70;;;;;;5115142;28;20079;-49
2021/05/11 11:19:53;;;;;;;23.40;3.88;;;22.60;59.90;;;;;;5114999;28;20072;-54
2021/05/11 11:25:05;;;;;;;20.38;4.82;;;22.60;60.00;;;;;;5115129;28;20071;-52
2021/05/11 11:27:34;;;;;;;27.85;4.88;;;22.50;60.00;;;;;;5114737;28;20080;-52
2021/05/11 11:30:08;;;;;;;21.50;4.95;;;22.50;60.00;;;;;;5114859;28;20136;-54
2021/05/11 11:32:36;;;;;;;25.52;5.15;;;22.40;60.10;;;;;;5115033;28;20077;-50
2021/05/11 11:35:04;;;;;;;24.00;4.88;;;22.40;60.00;;;;;;5114694;28;20079;-52
2021/05/11 11:37:31;;;;;;;22.92;4.07;;;22.40;59.80;;;;;;5114807;28;20072;-55
2021/05/11 11:40:00;;;;;;;21.85;4.72;;;22.30;59.70;;;;;;5114603;28;20597;-50
2021/05/11 11:42:35;;;;;;;27.45;4.65;;;22.30;59.80;;;;;;5114765;28;20064;-53
2021/05/11 11:45:04;;;;;;;17.40;4.40;;;22.20;59.60;;;;;;5114955;28;20083;-52
2021/05/11 11:47:32;;;;;;;24.33;4.32;;;22.20;59.30;;;;;;5114451;28;20068;-52
2021/05/11 11:50:03;;;;;;;20.13;4.47;;;22.20;59.30;;;;;;5114379;28;20068;-50
2021/05/11 11:55:42;;;;;;;21.65;4.53;;;22.10;59.10;;;;;;5114521;28;20148;-50
2021/05/11 11:58:08;;;;;;;18.35;4.28;;;22.10;59.30;;;;;;5114435;28;20409;-55
2021/05/11 12:00:36;;;;;;;26.65;4.80;;;22.10;59.20;;;;;;5114130;28;20120;-49
2021/05/11 12:03:17;;;;;;;23.25;5.35;;;22.10;59.30;;;;;;5113871;28;20123;-51
2021/05/11 12:05:57;;;;;;;27.30;4.75;;;22.20;59.10;;;;;;5114200;28;20068;-54
2021/05/11 12:08:30;;;;;;;24.10;4.60;;;22.30;59.00;;;;;;5114449;28;20075;-53
2021/05/11 12:11:01;;;;;;;18.98;4.20;;;22.20;59.00;;;;;;5114430;28;20402;-52
2021/05/11 12:13:33;;;;;;;18.45;3.97;;;22.30;59.00;;;;;;5114103;28;20537;-56
2021/05/11 12:16:15;;;;;;;20.50;4.90;;;22.20;58.90;;;;;;5114018;28;20194;-52
2021/05/11 12:19:12;;;;;;;22.05;4.75;;;22.20;59.00;;;;;;5114306;28;20087;-50
2021/05/11 12:22:01;;;;;;;25.63;4.80;;;22.10;59.00;;;;;;5114236;28;20141;-49
2021/05/11 12:24:33;;;;;;;16.70;4.30;;;22.00;59.10;;;;;;5113738;28;20511;-55
2021/05/11 12:27:19;;;;;;;19.35;4.22;;;22.00;59.10;;;;;;5114038;28;20076;-50
2021/05/11 12:30:07;;;;;;;19.67;4.78;;;21.90;59.30;;;;;;5113617;28;20087;-50
2021/05/11 12:32:35;;;;;;;22.65;4.57;;;21.90;59.50;;;;;;5113234;28;20547;-54
2021/05/11 12:35:13;;;;;;;22.58;4.45;;;21.90;59.40;;;;;;5113646;28;20076;-52
2021/05/11 12:37:49;;;;;;;18.70;4.32;;;21.80;59.40;;;;;;5113585;28;20163;-51
2021/05/11 12:40:31;;;;;;;28.83;4.93;;;21.80;59.70;;;;;;5113603;28;20072;-55
2021/05/11 12:46:30;;;;;;;21.85;4.85;;;21.90;59.00;;;;;;5114060;28;20136;-51
2021/05/11 12:49:05;;;;;;;16.67;4.63;;;21.90;59.40;;;;;;5113581;28;20220;-53
2021/05/11 12:51:37;;;;;;;21.08;5.35;;;21.80;59.80;;;;;;5113781;28;20084;-50
2021/05/11 12:54:35;;;;;;;23.45;5.10;;;21.90;59.00;;;;;;5113250;28;20107;-50
2021/05/11 12:59:52;;;;;;;25.27;4.75;;;21.80;58.70;;;;;;5113478;28;19959;-52
2021/05/11 13:02:42;;;;;;;24.58;5.18;;;21.80;92.60;;;;;;5113381;28;20080;-53
2021/05/11 13:13:57;;;;;;;25.27;5.57;;;21.70;57.80;;;;;;5113715;28;20145;-57
2021/05/11 13:27:23;;;;;;;20.85;5.30;;;21.80;57.30;;;;;;5113408;28;20111;-53
2021/05/11 13:35:02;;;;;;;30.40;5.75;;;21.70;57.30;;;;;;5113371;28;20064;-55
2021/05/11 13:37:29;;;;;;;37.78;6.15;;;21.70;57.30;;;;;;5113098;28;20134;-56
2021/05/11 13:39:56;;;;;;;25.63;5.65;;;21.70;57.30;;;;;;5113043;28;20073;-53
2021/05/11 13:42:23;;;;;;;34.83;5.88;;;21.80;57.30;;;;;;5113309;28;20076;-52
2021/05/11 13:44:53;;;;;;;33.00;5.65;;;21.80;57.40;;;;;;5114682;28;20100;-54
2021/05/11 13:47:20;;;;;;;36.17;5.90;;;21.80;57.10;;;;;;5117055;28;20076;-55
2021/05/11 13:49:57;;;;;;;24.75;5.50;;;21.90;57.00;;;;;;5116715;28;20444;-52
2021/05/11 13:52:24;;;;;;;25.23;5.55;;;21.90;56.90;;;;;;5116772;28;20076;-51
2021/05/11 14:03:41;;;;;;;30.48;6.78;;;22.20;56.50;;;;;;5116995;28;20433;-53
2021/05/11 14:06:07;;;;;;;32.63;6.75;;;22.30;56.60;;;;;;5116429;28;20163;-55
2021/05/11 14:08:34;;;;;;;40.15;7.47;;;22.30;56.70;;;;;;5116256;28;20549;-56
2021/05/11 14:14:22;;;;;;;51.95;7.82;;;22.50;56.70;;;;;;5116421;28;20091;-54
2021/05/11 14:20:11;;;;;;;52.85;7.40;;;22.60;56.20;;;;;;5116543;28;20555;-53
2021/05/11 14:22:38;;;;;;;38.78;6.63;;;22.80;56.30;;;;;;5116038;28;20164;-57
2021/05/11 14:25:05;;;;;;;52.33;7.00;;;22.80;56.40;;;;;;5116377;28;20113;-53
2021/05/11 14:27:32;;;;;;;46.10;7.68;;;22.80;56.60;;;;;;5116031;28;20068;-55
2021/05/11 14:29:58;;;;;;;50.30;8.43;;;23.00;56.40;;;;;;5116299;28;20494;-54
2021/05/11 14:32:25;;;;;;;56.15;8.75;;;23.10;56.00;;;;;;5115976;28;20129;-55
2021/05/11 14:34:51;;;;;;;60.83;9.43;;;23.10;55.80;;;;;;5116026;28;20068;-56
2021/05/11 14:40:39;;;;;;;48.90;6.63;;;23.50;55.30;;;;;;5116175;28;20075;-56
2021/05/11 14:46:28;;;;;;;51.20;7.72;;;24.00;54.50;;;;;;5116192;28;20171;-57
2021/05/11 14:48:55;;;;;;;45.20;6.93;;;24.30;53.90;;;;;;5115735;28;20079;-56
2021/05/11 14:51:21;;;;;;;57.05;11.13;;;24.60;53.30;;;;;;5115687;28;20072;-55
2021/05/11 14:53:49;;;;;;;66.07;15.43;;;24.90;52.60;;;;;;5115570;28;20484;-56
2021/05/11 14:59:37;;;;;;;72.55;19.38;;;25.40;51.50;;;;;;5115921;28;20083;-53
2021/05/11 15:02:05;;;;;;;63.17;16.45;;;25.70;51.20;;;;;;5115491;28;20072;-52
2021/05/11 15:04:31;;;;;;;67.60;18.13;;;26.00;50.50;;;;;;5115295;28;20110;-56
2021/05/11 15:06:59;;;;;;;73.68;21.55;;;26.10;49.50;;;;;;5115347;28;20119;-57
2021/05/11 15:09:27;;;;;;;100.50;26.80;;;26.10;49.50;;;;;;5115230;28;20125;-52
2021/05/11 15:11:54;;;;;;;92.57;28.40;;;26.40;49.40;;;;;;5115402;28;20658;-54
2021/05/11 15:14:20;;;;;;;103.38;30.02;;;26.50;49.00;;;;;;5115171;28;20585;-55
2021/05/11 15:16:56;;;;;;;86.75;26.23;;;26.70;49.00;;;;;;5115379;28;20159;-55
2021/05/11 15:19:22;;;;;;;73.32;23.90;;;26.80;48.50;;;;;;5115311;28;20083;-51
2021/05/11 15:21:49;;;;;;;85.47;24.42;;;27.20;48.30;;;;;;5114918;28;20068;-54
2021/05/11 15:24:15;;;;;;;71.50;22.23;;;27.30;48.00;;;;;;5115082;28;20131;-55
2021/05/11 15:26:42;;;;;;;71.38;23.40;;;27.30;48.30;;;;;;5114959;28;20561;-54
2021/05/11 15:29:08;;;;;;;63.97;19.80;;;27.60;47.90;;;;;;5114841;28;20072;-57
2021/05/11 15:34:57;;;;;;;73.07;18.48;;;28.30;45.80;;;;;;5115205;28;20113;-53
2021/05/11 15:37:24;;;;;;;60.00;15.27;;;28.30;46.00;;;;;;5114738;28;20075;-54
2021/05/11 15:39:50;;;;;;;65.85;16.77;;;28.30;45.90;;;;;;5114963;28;20072;-57
2021/05/11 15:42:16;;;;;;;86.72;19.95;;;28.60;46.00;;;;;;5114574;28;20076;-59
2021/05/11 15:44:43;;;;;;;87.10;19.88;;;28.80;45.60;;;;;;5114594;28;20442;-55
2021/05/11 15:47:09;;;;;;;63.53;18.08;;;29.10;45.00;;;;;;5114992;28;20150;-52
2021/05/11 15:49:36;;;;;;;80.55;20.00;;;29.20;44.30;;;;;;5114531;28;20072;-55
2021/05/11 15:55:24;;;;;;;76.80;18.02;;;29.30;44.30;;;;;;5102724;28;20580;-56
2021/05/11 16:01:12;;;;;;;79.90;22.15;;;29.40;43.80;;;;;;5114558;28;20141;-51
2021/05/11 16:03:39;;;;;;;82.25;20.90;;;29.50;43.50;;;;;;5114245;28;20144;-56
2021/05/11 16:06:05;;;;;;;79.93;21.63;;;29.80;43.20;;;;;;5114292;28;20082;-55
2021/05/11 16:08:31;;;;;;;81.57;21.23;;;29.70;42.70;;;;;;5113441;28;20080;-55
2021/05/11 16:11:01;;;;;;;82.47;19.77;;;29.90;42.60;;;;;;5114039;28;20178;-54
2021/05/11 16:13:27;;;;;;;84.97;23.25;;;29.60;42.70;;;;;;5114155;28;20064;-54
2021/05/11 16:15:54;;;;;;;80.43;21.27;;;30.10;42.10;;;;;;5114321;28;20398;-55
2021/05/11 16:18:20;;;;;;;86.63;23.05;;;30.30;41.50;;;;;;5113845;28;20076;-56
2021/05/11 16:20:47;;;;;;;87.28;21.88;;;30.60;40.90;;;;;;5114016;28;20437;-54
2021/05/11 16:23:13;;;;;;;81.25;22.92;;;30.80;40.50;;;;;;5113948;28;20448;-51
2021/05/11 16:25:40;;;;;;;82.38;21.90;;;31.10;40.00;;;;;;5113945;28;20064;-57
2021/05/11 16:28:08;;;;;;;88.68;23.55;;;31.20;39.40;;;;;;5113880;28;20437;-55
2021/05/11 16:33:57;;;;;;;76.57;20.73;;;31.40;38.40;;;;;;5114207;28;20121;-56
2021/05/11 16:39:46;;;;;;;83.50;21.08;;;31.90;37.70;;;;;;5113833;28;20176;-54
2021/05/11 16:42:13;;;;;;;67.68;19.73;;;31.80;38.20;;;;;;5113579;28;20072;-54
2021/05/11 16:44:40;;;;;;;73.10;19.58;;;31.90;38.00;;;;;;5113415;28;20104;-56
2021/05/11 16:47:07;;;;;;;59.67;17.75;;;32.30;37.10;;;;;;5113673;28;20125;-55
2021/05/11 16:49:33;;;;;;;64.43;17.15;;;32.20;36.80;;;;;;5113617;28;20084;-56
2021/05/11 16:52:00;;;;;;;58.58;15.75;;;32.50;36.10;;;;;;5113431;28;20071;-56
2021/05/11 16:54:26;;;;;;;47.42;14.48;;;32.60;35.10;;;;;;5113418;28;20072;-51
2021/05/11 16:56:52;;;;;;;51.42;14.02;;;32.80;33.90;;;;;;5113393;28;20068;-57
2021/05/11 16:59:19;;;;;;;42.83;10.75;;;32.80;33.80;;;;;;5113466;28;20083;-53
2021/05/11 17:01:46;;;;;;;47.65;11.95;;;33.00;32.40;;;;;;5113333;28;20072;-54
2021/05/11 17:04:12;;;;;;;48.30;13.90;;;33.30;32.00;;;;;;5113684;28;20143;-56
2021/05/11 17:06:40;;;;;;;41.72;13.30;;;33.40;32.50;;;;;;5113226;28;20088;-52
2021/05/11 17:09:09;;;;;;;48.85;12.13;;;33.50;31.50;;;;;;5113139;28;20079;-55
2021/05/11 17:11:37;;;;;;;56.78;13.68;;;33.50;31.70;;;;;;5113296;28;20076;-53
2021/05/11 17:14:06;;;;;;;40.33;12.15;;;33.80;31.70;;;;;;5113292;28;20104;-53
2021/05/11 17:16:32;;;;;;;41.05;11.52;;;33.60;31.40;;;;;;5113667;28;20140;-52
2021/05/11 17:18:59;;;;;;;49.85;11.43;;;33.80;31.10;;;;;;5115498;28;20080;-53
2021/05/11 17:21:29;;;;;;;61.05;12.73;;;34.00;30.60;;;;;;5117422;28;20068;-54
2021/05/11 17:23:56;;;;;;;46.60;11.77;;;34.20;30.60;;;;;;5117332;28;20225;-55
2021/05/11 17:26:23;;;;;;;48.40;10.75;;;34.40;30.40;;;;;;5117525;28;20409;-53
2021/05/11 17:28:52;;;;;;;48.20;11.32;;;34.50;30.60;;;;;;5117170;28;20213;-52
2021/05/11 17:34:40;;;;;;;40.10;10.85;;;34.50;30.60;;;;;;5117724;28;20111;-55
2021/05/11 17:37:07;;;;;;;38.63;9.27;;;34.90;30.70;;;;;;5117119;28;20521;-51
2021/05/11 17:39:35;;;;;;;28.58;9.02;;;35.10;30.20;;;;;;5117029;28;20156;-53
2021/05/11 17:42:06;;;;;;;33.90;8.25;;;35.20;29.90;;;;;;5116983;28;20076;-58
2021/05/11 17:44:32;;;;;;;35.70;9.05;;;35.40;29.40;;;;;;5116625;28;20163;-53
2021/05/11 17:46:59;;;;;;;29.80;8.00;;;35.10;29.30;;;;;;5116794;28;20493;-52
2021/05/11 17:49:26;;;;;;;32.08;8.13;;;35.30;29.40;;;;;;5116735;28;20537;-54
2021/05/11 17:51:52;;;;;;;37.08;8.95;;;35.40;29.20;;;;;;5098504;28;20521;-53
2021/05/11 17:54:20;;;;;;;38.95;8.43;;;35.60;29.60;;;;;;5116275;28;20161;-57
2021/05/11 17:56:47;;;;;;;36.72;9.82;;;35.80;28.80;;;;;;5116292;28;20079;-55
2021/05/11 17:59:13;;;;;;;53.75;12.27;;;35.70;29.20;;;;;;5116472;28;20082;-56
2021/05/11 18:01:42;;;;;;;39.58;10.73;;;35.60;28.30;;;;;;5116275;28;20068;-57
2021/05/11 18:04:08;;;;;;;35.15;7.50;;;35.80;28.40;;;;;;5116312;28;20106;-54
2021/05/11 18:06:35;;;;;;;29.13;7.13;;;35.80;28.90;;;;;;5098236;28;20072;-58
2021/05/11 18:09:02;;;;;;;29.17;7.15;;;36.00;28.30;;;;;;5116502;28;20076;-54
2021/05/11 18:11:29;;;;;;;29.65;5.88;;;35.80;28.30;;;;;;5116618;28;20124;-55
2021/05/11 18:13:55;;;;;;;28.02;6.90;;;35.90;28.70;;;;;;5116305;28;20440;-56
2021/05/11 18:19:44;;;;;;;38.10;10.82;;;35.80;27.00;;;;;;5116365;28;20107;-54
2021/05/11 18:25:33;;;;;;;23.20;6.13;;;35.90;26.50;;;;;;5116582;28;20503;-59
2021/05/11 18:28:00;;;;;;;22.33;7.35;;;35.90;27.10;;;;;;5115570;28;20088;-57
2021/05/11 18:30:27;;;;;;;33.47;9.48;;;35.80;27.30;;;;;;5115184;28;20564;-61
2021/05/11 18:32:54;;;;;;;43.40;10.85;;;35.70;26.60;;;;;;5115949;28;20107;-62
2021/05/11 18:35:27;;;;;;;33.88;8.05;;;35.80;26.20;;;;;;5116092;28;20521;-63
2021/05/11 18:40:20;;;;;;;26.80;8.23;;;36.10;24.30;;;;;;5116116;28;20407;-63
2021/05/11 18:42:47;;;;;;;26.67;7.25;;;36.10;24.40;;;;;;5115986;28;20068;-63